Manassas Park, Virginia
Current Conditions -  °F | °C
As of 9:55 PM on Friday 19 Dec 2014 (Local Time) from KHEF Reporting Station
Clear Clear  
Wind Chill: 28°   Ceiling: Unl
Heat Index: 28°   Visibility: 10mi
Dew Point: 25°   Wind: 3mph
Humidity: 86%   Direction: 350°N
Pressure: 30.26"   Gusts: NA
Location:  38.7486°N, 77.432°W
Report Text: KHEF 200255Z 35003KT 10SM CLR M02/M04 A3026 RMK AO1 52014
Loading
Personal Weather Stations






























Interactive Weather Map New forecast layout! Learn more

10-Day Weather Forecast

Advertisements
Track Severe Weather on mobile